Terminal Aerodrome Forecast
Issued by NWS

Home | Current Version | Previous Version | Text Only | Print | Product List | Glossary On
Versions: 1 2 3 4 5 6 7 8 9 10 11 12
000
FTUS46 KSGX 250525
TAFCRQ
TAF
KCRQ 250525Z 2506/2606 VRB04KT P6SM FEW250
     FM251200 VRB04KT P6SM VCFG FEW002
     FM251600 VRB04KT P6SM FEW250
     FM260500 VRB04KT 1SM BR VCFG BKN002=

USA.gov is the U.S. government's official web portal to all federal, state and local government web resources and services.